Flight Track Log - Related Links

Times and Time Zones

All times are in EDT time to prevent confusion due to time zone crossing. See the N26141 flight status page for this flight to view local times or setup timezone preferences in your user account.

Time Position Orientation Groundspeed Altitude Reporting Facility
EDT Latitude Longitude Course Direction KTS MPH feet Rate Location/Type
Wed 03:40:22 PM 42.2314 -83.3342 285° West 167 192 1,300  Level Cleveland Center
Wed 03:41:29 PM 42.2839 -83.3142 16° North 183 211 4,100 2,239 Climbing Cleveland Center
Wed 03:42:36 PM 42.3508 -83.3000 North 236 272 6,300 2,182 Climbing Cleveland Center
Wed 03:43:30 PM 42.3700 -83.3797 288° West 265 305 8,500 2,018 Climbing Cleveland Center
Wed 03:44:00 PM 42.2942 -83.6983 283° West  Level FlightAware Approximate
Wed 03:44:26 PM 42.3819 -83.4786 279° West 276 318 10,000  Level Cleveland Center
Wed 03:45:00 PM 42.3110 -83.7884 285° West  Level FlightAware Approximate
Wed 03:45:26 PM 42.3853 -83.5939 272° West 355 409 10,200  Level Cleveland Center
Wed 03:46:26 PM 42.3925 -83.7125 275° West 347 399 12,000 1,700 Climbing Cleveland Center
Wed 03:47:26 PM 42.4017 -83.8394 276° West 340 391 13,600 1,650 Climbing Cleveland Center
Wed 03:48:26 PM 42.4106 -83.9664 275° West 340 391 15,300 1,500 Climbing Cleveland Center
Wed 03:49:26 PM 42.4192 -84.0964 275° West 345 397 16,600 1,300 Climbing Cleveland Center
Wed 03:50:26 PM 42.4253 -84.2289 274° West 351 404 17,900 1,434 Climbing Cleveland Center
Wed 03:52:51 PM 42.4369 -84.5406 273° West 361 415 21,500 1,536 Climbing Chicago Center
Wed 03:53:53 PM 42.4403 -84.6717 272° West 351 404 23,200 1,210 Climbing Chicago Center
Wed 03:54:55 PM 42.4436 -84.8069 272° West 358 412 24,000 387 Climbing Chicago Center
Wed 03:55:57 PM 42.4467 -84.9761 271° West 373 429 24,000  Level Chicago Center
Wed 03:56:59 PM 42.4500 -85.1178 272° West 376 433 24,000 -97 Level Chicago Center
Wed 03:58:01 PM 42.4511 -85.2622 271° West 383 441 23,800 -576 Descending Chicago Center
Wed 03:59:04 PM 42.4528 -85.4025 271° West 376 433 22,800 -952 Descending Chicago Center
Wed 04:00:07 PM 42.4539 -85.5408 271° West 369 425 21,800 -960 Descending Chicago Center
Wed 04:01:09 PM 42.4550 -85.6781 271° West 365 420 20,800 -871 Descending Chicago Center
Wed 04:02:11 PM 42.4558 -85.8408 270° West 361 415 20,000 -387 Descending Chicago Center
Wed 04:03:13 PM 42.4564 -85.9689 270° West 345 397 20,000  Level Chicago Center
Wed 04:04:15 PM 42.4572 -86.0978 271° West 341 392 20,000  Level Chicago Center
Wed 04:05:17 PM 42.4572 -86.2314 270° West 351 404 20,000 -290 Level Chicago Center
Wed 04:06:19 PM 42.4572 -86.3719 270° West 367 422 19,400 -1,161 Descending Chicago Center
Wed 04:07:21 PM 42.4558 -86.5042 269° West 354 407 17,600 -1,790 Descending Chicago Center
Wed 04:08:23 PM 42.4572 -86.6375 271° West 353 406 15,700 -1,984 Descending Chicago Center
Wed 04:09:25 PM 42.4578 -86.7872 270° West 337 388 13,500 -1,584 Descending Chicago Center
Wed 04:10:28 PM 42.4578 -86.9000 270° West 297 342 12,400 -1,392 Descending Chicago Center
Wed 04:11:30 PM 42.4569 -87.0025 269° West 275 316 10,600 -1,694 Descending Chicago Center
Wed 04:12:32 PM 42.4542 -87.0978 268° West 258 297 8,900 -1,306 Descending Chicago Center
Wed 04:13:34 PM 42.4289 -87.1911 250° West 268 308 7,900 -968 Descending Chicago Center
Wed 04:14:36 PM 42.3711 -87.2567 220° Southwest 269 310 6,900 -919 Descending Chicago Center
Wed 04:15:38 PM 42.3067 -87.3375 223° Southwest 272 313 6,000 -484 Descending Chicago Center
Wed 04:16:40 PM 42.2581 -87.3964 222° Southwest 239 275 5,900 -484 Descending Chicago Center
Wed 04:17:42 PM 42.2058 -87.4608 222° Southwest 251 289 5,000 -435 Descending Chicago Center
Wed 04:18:44 PM 42.1475 -87.5336 223° Southwest 242 278 5,000 -484 Level Chicago Center
Wed 04:19:46 PM 42.1028 -87.6039 229° Southwest 244 281 4,000 -864 Descending Chicago Center
Wed 04:20:49 PM 42.0631 -87.6739 233° Southwest 241 277 3,200 -528 Descending Chicago Center
Wed 04:21:51 PM 42.0269 -87.7408 234° Southwest 233 268 2,900 -290 Descending Chicago Center

Login

Don't have an account? Register now (free) for customized features, flight alerts, and more!